Airfield :
LOGIN :

Register | Disclaimer

   EN    FR    IT 

 










Legend :    VFR   Marginal VFR   IFR   Intensive IFR   Very Intensive IFR
Visi :
Ceiling :
>= 8 km
>= 3000ft
5 to 8 km
1000 to 3000 ft
1500m to 5 km
500 to 1000 ft
800 to 1500m
200 to 500 ft
< 800m
< 200 ft
Symbols :   Thunderstorms  Fog  Heavy snow  Heavy precipitations  Wind > 20 kt
SIGMETs :     Misc.  Thunderstorms  Icing  Turbulence  Mountain Waves  Volcanic Ashes







- Airport Elevation : 55 ft
- IATA code : DSA
- Download approach charts


EGCN - Robin Hood Doncaster Sheffield

CURRENT METAR :
  • 201320Z 21015KT 9999 BKN024 12/07 Q1016

EXPIRED METARs :
  • 201250Z 20014KT 9999 BKN024 12/07 Q1016
  • 201220Z 20011KT 9999 BKN023 12/08 Q1017
  • 201150Z 20011KT 9999 SCT021 BKN026 11/07 Q1017
  • 201120Z 20009KT 9999 BKN021 10/07 Q1017
  • 201050Z 20010KT 9999 BKN022 10/07 Q1016

TAF TAF EGCN
Valid from the 20 at 12:00 until the 21 at 12:00 UTC


201058Z 2012/2112 20009KT 9999 SCT020
PROB30
TEMPO 2016/2021 7000 RA BKN014
TEMPO 2021/2109 9000 -RA BKN014
No reported NOTAMs for that airfield.
1 SIGMET reported for the London FIR (EGTT) :
 
Severe mountain waves
EGTT SIGMET 03 VALID 201330/201730 EGRR
EGTT LONDON FIR SEV MTW FCST WI N5500 W00116 - N5430 W00110 - N5245 W00200 - N5245 W00400 - N5500 W00330 - N5500 W00116 FL030/250 STNR WKN=



MET'MAP, your aeronautical weather chart ! - Copyright ORBIFLY December 2007 - Disclaimer

ORBIFLY MET'MAP TEAM :

Programming & Development : Alexandra Zaïnal
Concept & Development : Baudouin d'Aumeries
Co-Development & Prog : Marc-Olivier Méhu
Technical & hardware support : Manuel Goepfert

Contact : metmap@orbifly.com




SOURCES & CREDITS :

   NOAA